This is the latest recevied weather packets stored in our database for station/object K7CTM. If no packets are shown the sender has not sent any weather packets the latest 10 day(s).
| Time | Temp. | Humidity | Pressure | Rain* | Wind** | Luminosity | Snow |
|---|---|---|---|---|---|---|---|
| 1777416673 | 10.56° C | 44% | 1026.1 hPa | 0 mm | - | 245 W/m² | - |
| 1777416370 | 10.56° C | 43% | 1026 hPa | 0 mm | - | 289 W/m² | - |
| 1777416068 | 10.56° C | 43% | 1026 hPa | 0 mm | - | 263 W/m² | - |
| 1777415764 | 11.11° C | 42% | 1025.7 hPa | 0 mm | - | 325 W/m² | - |
| 1777415461 | 11.67° C | 38% | 1025.7 hPa | 0 mm | - | 187 W/m² | - |
| 1777415156 | 12.22° C | 35% | 1025.8 hPa | 0 mm | - | 458 W/m² | - |
| 1777414850 | 11.67° C | 35% | 1025.7 hPa | 0 mm | - | 150 W/m² | - |
| 1777414545 | 11.67° C | 35% | 1025.5 hPa | 0 mm | - | 154 W/m² | - |
| 1777414244 | 12.22° C | 34% | 1025.5 hPa | 0 mm | - | 125 W/m² | - |
| 1777413940 | 12.78° C | 32% | 1025.4 hPa | 0 mm | - | 465 W/m² | - |
| 1777413635 | 12.78° C | 35% | 1025.4 hPa | 0 mm | - | 642 W/m² | - |
| 1777413332 | 12.78° C | 35% | 1025.6 hPa | 0 mm | - | 622 W/m² | - |
| 1777413028 | 13.33° C | 35% | 1025.4 hPa | 0 mm | - | 714 W/m² | - |
| 1777412728 | 12.78° C | 36% | 1025.6 hPa | 0 mm | - | 669 W/m² | - |
| 1777412426 | 12.78° C | 35% | 1025.6 hPa | 0 mm | - | 667 W/m² | - |
| 1777412125 | 12.78° C | 34% | 1025.7 hPa | 0 mm | - | 665 W/m² | - |
| 1777411821 | 11.67° C | 35% | 1025.7 hPa | 0 mm | - | 670 W/m² | - |
| 1777411519 | 12.22° C | 35% | 1025.6 hPa | 0 mm | - | 687 W/m² | - |
| 1777411215 | 12.22° C | 36% | 1025.6 hPa | 0 mm | - | 743 W/m² | - |
| 1777410909 | 11.11° C | 37% | 1025.8 hPa | 0 mm | - | 386 W/m² | - |
| 1777410603 | 11.67° C | 37% | 1026.1 hPa | 0 mm | - | 813 W/m² | - |
| 1777410302 | 11.11° C | 35% | 1026.1 hPa | 0 mm | - | 277 W/m² | - |
| 1777409997 | 11.11° C | 36% | 1026.1 hPa | 0 mm | - | 238 W/m² | - |
| 1777409692 | 12.78° C | 33% | 1026.1 hPa | 0 mm | - | 841 W/m² | - |
| 1777409389 | 11.67° C | 34% | 1026.1 hPa | 0 mm | - | 953 W/m² | - |
* Rain latest hour (hover to see other rain measurements)
** Current wind speed in m/s (hover to see current wind gust speed)